Time;durP1;ratioP1;P1;durP2;ratioP2;P2;SDS_P1;SDS_P2;PMS_P1;PMS_P2;Temp;Humidity;BMP_temperature;BMP_pressure;BME280_temperature;BME280_humidity;BME280_pressure;Samples;Min_cycle;Max_cycle;Signal;HPM_P1;HPM_P2
2022/08/14 00:01:49;;;;;;;2.25;2.10;;;25.00;54.00;;;;;;5094473;28;20825;-66
2022/08/14 00:04:15;;;;;;;2.60;2.40;;;25.00;54.00;;;;;;5094827;28;20044;-66
2022/08/14 00:06:41;;;;;;;3.00;2.75;;;25.10;54.10;;;;;;5094490;28;20127;-65
2022/08/14 00:09:07;;;;;;;2.40;2.20;;;25.00;54.00;;;;;;5094688;28;20075;-66
2022/08/14 00:11:32;;;;;;;2.70;2.50;;;25.00;54.00;;;;;;5094416;28;20426;-66
2022/08/14 00:14:00;;;;;;;2.45;2.25;;;25.10;54.10;;;;;;5094338;28;20048;-66
2022/08/14 00:16:26;;;;;;;2.58;2.38;;;25.00;54.10;;;;;;5094191;28;20040;-66
2022/08/14 00:18:51;;;;;;;2.60;2.30;;;25.00;54.10;;;;;;5094232;28;20043;-66
2022/08/14 00:21:17;;;;;;;2.28;2.08;;;25.00;54.10;;;;;;5094214;28;20044;-66
2022/08/14 00:23:43;;;;;;;2.75;2.55;;;25.00;54.10;;;;;;5094448;28;20044;-66
2022/08/14 00:26:08;;;;;;;2.25;2.05;;;25.00;54.10;;;;;;5094109;28;20399;-66
2022/08/14 00:28:34;;;;;;;3.83;2.90;;;25.00;54.10;;;;;;5094073;28;20047;-66
2022/08/14 00:31:00;;;;;;;2.70;2.50;;;25.00;54.10;;;;;;5093908;28;20047;-66
2022/08/14 00:33:27;;;;;;;2.83;2.47;;;25.00;54.10;;;;;;5093951;28;20054;-66
2022/08/14 00:35:53;;;;;;;2.38;2.17;;;25.00;54.10;;;;;;5093964;28;20040;-66
2022/08/14 00:38:19;;;;;;;3.08;2.35;;;25.00;54.20;;;;;;5093792;28;20047;-66
2022/08/14 00:40:45;;;;;;;2.80;2.40;;;25.00;54.20;;;;;;5093847;28;20032;-66
2022/08/14 00:43:11;;;;;;;2.45;2.25;;;25.00;54.10;;;;;;5093725;28;20090;-66
2022/08/14 00:45:37;;;;;;;2.55;2.35;;;24.90;54.90;;;;;;5093758;28;20056;-66
2022/08/14 00:48:03;;;;;;;3.65;3.22;;;24.90;54.10;;;;;;5094882;28;20082;-68
2022/08/14 00:50:29;;;;;;;2.83;2.50;;;24.90;54.20;;;;;;5093969;28;20127;-68
2022/08/14 00:52:58;;;;;;;5.00;2.90;;;25.00;54.20;;;;;;5076806;28;20574;-65
2022/08/14 00:55:26;;;;;;;3.30;3.03;;;24.90;54.20;;;;;;5093555;28;20040;-65
2022/08/14 01:00:39;;;;;;;2.85;2.65;;;24.90;54.20;;;;;;5093358;28;20047;-68
2022/08/14 01:03:06;;;;;;;3.30;3.10;;;24.90;54.20;;;;;;5094855;28;20035;-66
2022/08/14 01:05:33;;;;;;;3.40;3.10;;;24.90;54.20;;;;;;5093439;28;20127;-66
2022/08/14 01:08:00;;;;;;;3.00;2.80;;;24.90;55.00;;;;;;5093025;28;20069;-66
2022/08/14 01:10:49;;;;;;;3.10;2.78;;;24.90;54.20;;;;;;5093362;28;20068;-66
2022/08/14 01:13:17;;;;;;;3.72;2.78;;;24.90;55.00;;;;;;5094274;28;20581;-66
2022/08/14 01:15:44;;;;;;;2.90;2.55;;;24.90;54.20;;;;;;5094603;28;20064;-66
2022/08/14 01:21:06;;;;;;;2.58;2.38;;;24.90;54.20;;;;;;5094136;28;20052;-66
2022/08/14 01:23:35;;;;;;;3.08;2.88;;;24.90;54.30;;;;;;5094220;28;20047;-68
2022/08/14 01:26:01;;;;;;;3.65;3.35;;;24.90;54.20;;;;;;5094231;28;20036;-66
2022/08/14 01:28:30;;;;;;;3.20;2.88;;;24.90;54.30;;;;;;5076065;28;20115;-66
2022/08/14 01:30:57;;;;;;;4.10;3.20;;;24.90;54.30;;;;;;5093129;28;20046;-66
2022/08/14 01:33:28;;;;;;;3.08;2.80;;;24.90;54.30;;;;;;5092537;28;20044;-68
2022/08/14 01:35:56;;;;;;;;;;;24.90;54.30;;;;;;5094539;28;20044;-66
2022/08/14 01:38:23;;;;;;;2.90;2.70;;;24.90;54.40;;;;;;5093842;28;19916;-66
2022/08/14 01:40:49;;;;;;;2.22;2.05;;;24.90;54.30;;;;;;5092981;28;20040;-66
2022/08/14 01:43:16;;;;;;;3.20;2.90;;;24.80;54.30;;;;;;5092816;28;20475;-66
2022/08/14 01:45:43;;;;;;;3.10;2.90;;;24.80;54.20;;;;;;5092671;28;20170;-66
2022/08/14 01:48:10;;;;;;;2.97;2.78;;;24.80;54.30;;;;;;5092874;28;20111;-65
2022/08/14 01:50:36;;;;;;;3.28;2.97;;;24.80;54.20;;;;;;5092512;28;20122;-68
2022/08/14 01:53:02;;;;;;;2.85;2.65;;;24.90;54.30;;;;;;5092685;28;20189;-66
2022/08/14 01:55:30;;;;;;;3.40;3.20;;;24.80;54.20;;;;;;5093559;28;20048;-66
2022/08/14 01:57:56;;;;;;;4.60;3.08;;;24.80;54.30;;;;;;5093622;28;20476;-66
2022/08/14 02:00:22;;;;;;;2.92;2.72;;;24.80;54.30;;;;;;5092547;28;20379;-66
2022/08/14 02:02:48;;;;;;;3.35;3.08;;;24.80;54.30;;;;;;5092275;28;20123;-65
2022/08/14 02:05:14;;;;;;;2.70;2.50;;;24.80;54.30;;;;;;5092451;28;20048;-66
2022/08/14 02:07:42;;;;;;;3.28;2.92;;;24.80;54.30;;;;;;5093345;28;20043;-66
2022/08/14 02:10:09;;;;;;;3.13;2.90;;;24.80;54.30;;;;;;5093354;28;20489;-66
2022/08/14 02:12:35;;;;;;;2.78;2.58;;;24.80;54.30;;;;;;5092324;28;20048;-66
2022/08/14 02:15:02;;;;;;;3.28;3.00;;;24.80;54.30;;;;;;5093335;28;20039;-65
2022/08/14 02:17:28;;;;;;;3.47;3.10;;;24.80;54.30;;;;;;5092064;28;20080;-66
2022/08/14 02:19:54;;;;;;;2.80;2.60;;;24.80;54.30;;;;;;5091331;28;20044;-66
2022/08/14 02:22:20;;;;;;;2.88;2.65;;;24.80;54.30;;;;;;5091852;28;20126;-66
2022/08/14 02:24:45;;;;;;;3.40;3.10;;;24.80;54.30;;;;;;5091756;28;20044;-66
2022/08/14 02:27:11;;;;;;;3.08;2.83;;;24.80;54.40;;;;;;5092064;28;20079;-66
2022/08/14 02:29:37;;;;;;;3.63;3.30;;;24.70;54.30;;;;;;5091752;28;20044;-66
2022/08/14 02:32:03;;;;;;;3.55;3.25;;;24.70;54.30;;;;;;5093048;28;20185;-66
2022/08/14 02:34:31;;;;;;;3.05;2.85;;;24.70;54.30;;;;;;5092698;28;20036;-65
2022/08/14 02:37:01;;;;;;;3.35;3.15;;;24.70;54.30;;;;;;5092798;28;20046;-66
2022/08/14 02:39:28;;;;;;;3.60;3.30;;;24.70;54.30;;;;;;5093127;28;20036;-69
2022/08/14 02:41:54;;;;;;;3.95;3.60;;;24.70;54.30;;;;;;5091690;28;20044;-68
2022/08/14 02:44:21;;;;;;;3.53;3.22;;;24.70;54.30;;;;;;5091748;28;20169;-68
2022/08/14 02:46:49;;;;;;;3.35;3.15;;;24.70;54.30;;;;;;5091422;28;20048;-65
2022/08/14 02:49:15;;;;;;;3.28;3.08;;;24.70;54.30;;;;;;5091462;28;20048;-66
2022/08/14 02:51:41;;;;;;;3.47;3.20;;;24.70;54.30;;;;;;5091231;28;20040;-66
2022/08/14 02:54:08;;;;;;;2.70;2.50;;;24.70;54.30;;;;;;5092478;28;20046;-66
2022/08/14 02:56:37;;;;;;;3.55;3.33;;;24.70;54.30;;;;;;5091239;28;20609;-68
2022/08/14 02:59:06;;;;;;;3.03;2.83;;;24.70;54.40;;;;;;5091523;28;20113;-66
2022/08/14 03:01:33;;;;;;;3.33;3.03;;;24.70;54.40;;;;;;5091235;28;20036;-66
2022/08/14 03:03:59;;;;;;;3.65;3.35;;;24.70;54.30;;;;;;5074514;28;20044;-65
2022/08/14 03:06:25;;;;;;;3.42;3.17;;;24.70;54.30;;;;;;5092272;28;20036;-66
2022/08/14 03:08:53;;;;;;;3.13;2.92;;;24.70;54.40;;;;;;5092558;28;20032;-66
2022/08/14 03:11:20;;;;;;;2.92;2.72;;;24.70;54.40;;;;;;5091038;28;20413;-66
2022/08/14 03:13:51;;;;;;;3.20;3.00;;;24.70;54.40;;;;;;5091015;28;20071;-66
2022/08/14 03:16:21;;;;;;;3.78;3.47;;;24.70;54.40;;;;;;5092250;28;20093;-65
2022/08/14 03:18:47;;;;;;;;;;;24.70;54.40;;;;;;5091662;28;20044;-66
2022/08/14 03:21:17;;;;;;;3.17;2.97;;;24.70;54.40;;;;;;5091113;28;19916;-65
2022/08/14 03:23:47;;;;;;;3.53;3.22;;;24.60;54.30;;;;;;5092180;28;20472;-66
2022/08/14 03:26:14;;;;;;;;;;;24.60;54.40;;;;;;5091360;28;20077;-66
2022/08/14 03:28:43;;;;;;;3.30;3.00;;;24.60;54.40;;;;;;5091057;28;19985;-66
2022/08/14 03:31:10;;;;;;;3.45;3.17;;;24.60;54.40;;;;;;5090658;28;20100;-66
2022/08/14 03:33:39;;;;;;;3.60;3.40;;;24.60;54.40;;;;;;5090443;28;20055;-68
2022/08/14 03:36:11;;;;;;;3.42;3.22;;;24.60;54.40;;;;;;5090778;28;20044;-66
2022/08/14 03:38:41;;;;;;;3.42;3.13;;;24.60;54.40;;;;;;5090715;28;20122;-66
2022/08/14 03:41:13;;;;;;;3.35;3.08;;;24.60;54.40;;;;;;5091004;28;20047;-66
2022/08/14 03:43:40;;;;;;;3.70;3.40;;;24.60;54.40;;;;;;5090847;28;20036;-66
2022/08/14 03:46:06;;;;;;;3.03;2.83;;;24.60;54.40;;;;;;5091995;28;20100;-65
2022/08/14 03:48:32;;;;;;;2.88;2.67;;;24.60;54.50;;;;;;5090755;28;20123;-66
2022/08/14 03:51:01;;;;;;;4.03;3.72;;;24.60;54.50;;;;;;5090597;28;20391;-66
2022/08/14 03:53:26;;;;;;;4.32;3.95;;;24.60;54.50;;;;;;5090846;28;20218;-65
2022/08/14 03:55:57;;;;;;;2.95;2.75;;;24.60;54.40;;;;;;5090517;28;20479;-66
2022/08/14 03:58:23;;;;;;;3.50;3.20;;;24.60;54.50;;;;;;5091796;28;20048;-65
2022/08/14 04:00:49;;;;;;;3.45;3.25;;;24.50;54.40;;;;;;5091854;28;20046;-65
2022/08/14 04:03:15;;;;;;;4.10;3.17;;;24.50;54.40;;;;;;5090400;28;20093;-66
2022/08/14 04:05:41;;;;;;;3.70;3.40;;;24.50;54.40;;;;;;5090436;28;20052;-66
2022/08/14 04:08:08;;;;;;;4.30;3.97;;;24.60;54.50;;;;;;5090613;28;20134;-66
2022/08/14 04:10:34;;;;;;;4.55;4.15;;;24.50;54.40;;;;;;5090742;28;20127;-66
2022/08/14 04:13:01;;;;;;;4.05;3.75;;;24.50;54.50;;;;;;5090666;28;20568;-65
2022/08/14 04:15:26;;;;;;;4.10;3.80;;;24.50;55.20;;;;;;5091672;28;20588;-66
2022/08/14 04:17:53;;;;;;;3.95;3.55;;;24.50;54.50;;;;;;5091544;28;20044;-65
2022/08/14 04:20:20;;;;;;;4.07;3.67;;;24.50;54.50;;;;;;5090252;28;20119;-66
2022/08/14 04:22:49;;;;;;;4.03;3.38;;;24.50;54.50;;;;;;5073863;28;20040;-65
2022/08/14 04:25:15;;;;;;;5.15;3.63;;;24.50;54.60;;;;;;5090535;28;20043;-66
2022/08/14 04:27:41;;;;;;;4.40;3.88;;;24.50;54.60;;;;;;5090517;28;20099;-66
2022/08/14 04:30:07;;;;;;;4.65;4.28;;;24.50;54.60;;;;;;5090186;28;20047;-66
2022/08/14 04:32:33;;;;;;;3.90;3.60;;;24.50;54.60;;;;;;5090194;28;20139;-68
2022/08/14 04:34:59;;;;;;;5.00;4.50;;;24.50;54.60;;;;;;5089811;28;20131;-66
2022/08/14 04:45:44;;;;;;;4.20;3.78;;;24.50;54.60;;;;;;5093578;28;20040;-66
2022/08/14 04:48:12;;;;;;;4.50;4.10;;;24.50;54.60;;;;;;5093778;28;20119;-66
2022/08/14 04:53:35;;;;;;;4.20;3.90;;;24.50;54.60;;;;;;5109750;27;20985;-66
2022/08/14 04:56:01;;;;;;;4.38;3.97;;;24.40;54.60;;;;;;5109892;28;20051;-66
2022/08/14 04:58:29;;;;;;;4.25;3.95;;;24.50;54.70;;;;;;5108744;28;20071;-66
2022/08/14 05:00:56;;;;;;;3.97;3.60;;;24.40;54.60;;;;;;5108412;28;20047;-65
2022/08/14 05:03:25;;;;;;;3.88;3.58;;;24.40;54.70;;;;;;5108662;28;20042;-66
2022/08/14 05:05:53;;;;;;;5.05;4.07;;;24.40;54.70;;;;;;5108372;28;20636;-66
2022/08/14 05:08:19;;;;;;;4.15;3.85;;;24.40;54.70;;;;;;5108479;28;20124;-65
2022/08/14 05:10:51;;;;;;;4.10;3.70;;;24.40;54.70;;;;;;5109523;28;20605;-66
2022/08/14 05:13:19;;;;;;;4.70;4.30;;;24.40;54.70;;;;;;5109402;28;20040;-65
2022/08/14 05:15:45;;;;;;;4.57;4.18;;;24.40;54.80;;;;;;5109404;28;20099;-66
2022/08/14 05:18:14;;;;;;;4.53;3.90;;;24.40;54.80;;;;;;5108109;28;20067;-66
2022/08/14 05:20:45;;;;;;;4.97;4.57;;;24.40;54.80;;;;;;5109319;28;20089;-66
2022/08/14 05:23:11;;;;;;;;;;;24.40;54.80;;;;;;5109749;28;20039;-66
2022/08/14 05:25:37;;;;;;;4.18;3.88;;;24.40;54.90;;;;;;5108212;28;19916;-66
2022/08/14 05:28:09;;;;;;;4.68;4.35;;;24.30;54.80;;;;;;5108240;28;20040;-66
2022/08/14 05:30:36;;;;;;;4.55;4.15;;;24.40;54.90;;;;;;5107894;28;20043;-66
2022/08/14 05:33:01;;;;;;;4.40;4.03;;;24.40;54.90;;;;;;5107785;28;20115;-66
2022/08/14 05:35:27;;;;;;;5.32;4.32;;;24.30;54.90;;;;;;5107992;28;20509;-66
2022/08/14 05:37:52;;;;;;;4.20;3.88;;;24.40;55.00;;;;;;5107740;28;20162;-66
2022/08/14 05:40:18;;;;;;;4.32;3.92;;;24.30;54.90;;;;;;5124862;28;20040;-65
2022/08/14 05:42:44;;;;;;;4.38;3.90;;;24.40;55.00;;;;;;5107628;28;20116;-66
2022/08/14 05:45:11;;;;;;;5.28;4.78;;;24.30;55.00;;;;;;5107714;28;20040;-66
2022/08/14 05:47:39;;;;;;;4.60;3.95;;;24.40;55.00;;;;;;5108822;28;20061;-66
2022/08/14 05:50:08;;;;;;;5.53;4.32;;;24.30;55.00;;;;;;5107547;28;20055;-65
2022/08/14 05:52:33;;;;;;;4.18;3.88;;;24.30;55.00;;;;;;5107103;28;20448;-65
2022/08/14 05:54:59;;;;;;;4.70;4.30;;;24.30;55.00;;;;;;5107362;28;20123;-65
2022/08/14 05:57:25;;;;;;;4.30;4.00;;;24.30;55.10;;;;;;5107329;28;20146;-66
2022/08/14 05:59:51;;;;;;;4.85;4.43;;;24.30;55.10;;;;;;5107353;28;20043;-66
2022/08/14 06:02:17;;;;;;;4.70;4.30;;;24.30;55.10;;;;;;5108527;28;20097;-65
2022/08/14 06:04:47;;;;;;;4.55;4.25;;;24.30;55.20;;;;;;5095800;28;20036;-65
2022/08/14 06:07:13;;;;;;;4.70;4.30;;;24.30;55.10;;;;;;5093766;28;20039;-66
2022/08/14 06:09:39;;;;;;;4.93;4.53;;;24.30;55.20;;;;;;5093834;28;20044;-66
2022/08/14 06:12:06;;;;;;;5.30;4.80;;;24.30;55.20;;;;;;5093579;28;20106;-65
2022/08/14 06:14:32;;;;;;;4.47;4.07;;;24.30;55.20;;;;;;5093538;28;20446;-65
2022/08/14 06:16:58;;;;;;;4.47;4.07;;;24.30;55.20;;;;;;5093427;28;20036;-66
2022/08/14 06:19:23;;;;;;;4.20;3.90;;;24.30;55.30;;;;;;5094565;28;20036;-66
2022/08/14 06:21:49;;;;;;;4.57;3.72;;;24.30;55.30;;;;;;5094544;28;20040;-66
2022/08/14 06:24:15;;;;;;;3.85;3.63;;;24.30;55.30;;;;;;5094738;28;20040;-65
2022/08/14 06:26:41;;;;;;;5.85;4.25;;;24.30;55.40;;;;;;5093192;28;20040;-66
2022/08/14 06:29:06;;;;;;;4.38;4.00;;;24.30;55.30;;;;;;5093102;28;20044;-66
2022/08/14 06:31:32;;;;;;;4.45;4.05;;;24.40;55.50;;;;;;5094346;28;20075;-66
2022/08/14 06:33:58;;;;;;;4.88;4.50;;;24.30;55.40;;;;;;5093041;28;20058;-65
2022/08/14 06:36:23;;;;;;;4.57;4.18;;;24.30;55.50;;;;;;5093268;28;20058;-66
2022/08/14 06:38:51;;;;;;;5.10;4.05;;;24.30;55.50;;;;;;5094282;28;20480;-66
2022/08/14 06:41:17;;;;;;;4.80;4.43;;;24.30;55.60;;;;;;5093246;28;20132;-66
2022/08/14 06:43:43;;;;;;;5.03;4.63;;;24.30;55.60;;;;;;5092786;28;20074;-66
2022/08/14 06:46:08;;;;;;;4.47;4.07;;;24.30;55.70;;;;;;5092889;28;20076;-65
2022/08/14 06:48:34;;;;;;;4.53;4.13;;;24.30;55.70;;;;;;5093081;28;20040;-66
2022/08/14 06:51:00;;;;;;;4.90;4.50;;;24.30;55.80;;;;;;5092977;28;20499;-66
2022/08/14 06:53:25;;;;;;;4.30;4.00;;;24.30;55.90;;;;;;5092327;28;20419;-66
2022/08/14 06:55:51;;;;;;;4.30;3.90;;;24.30;55.90;;;;;;5092822;28;20052;-66
2022/08/14 06:58:17;;;;;;;4.43;4.03;;;24.30;55.90;;;;;;5093872;28;20584;-65
2022/08/14 07:05:44;;;;;;;4.25;3.95;;;24.30;56.00;;;;;;5092492;28;20043;-66
2022/08/14 07:06:17;;;;;;;4.85;4.45;;;24.30;56.00;;;;;;5092548;28;20036;-66
2022/08/14 07:08:43;;;;;;;5.07;4.68;;;24.30;56.00;;;;;;5092564;28;20044;-65
2022/08/14 07:11:10;;;;;;;4.90;4.38;;;24.30;56.10;;;;;;5092299;28;20441;-66
2022/08/14 07:13:36;;;;;;;4.60;4.20;;;24.30;56.10;;;;;;5092325;28;20048;-66
2022/08/14 07:16:01;;;;;;;5.00;4.60;;;24.40;56.20;;;;;;5092575;28;20040;-66
2022/08/14 07:18:29;;;;;;;3.67;3.38;;;24.30;56.30;;;;;;5093450;28;20101;-66
2022/08/14 07:20:57;;;;;;;4.63;4.32;;;24.40;56.40;;;;;;5109464;28;20078;-66
2022/08/14 07:23:24;;;;;;;5.47;5.03;;;24.30;56.40;;;;;;5093465;28;20490;-66
2022/08/14 07:25:52;;;;;;;4.78;4.38;;;24.30;56.50;;;;;;5092379;28;20048;-66
2022/08/14 07:28:22;;;;;;;4.82;4.43;;;24.40;56.60;;;;;;5109061;28;20070;-66
2022/08/14 07:30:51;;;;;;;4.55;4.20;;;24.30;57.30;;;;;;5092242;28;20040;-65
2022/08/14 07:33:18;;;;;;;4.47;4.07;;;24.40;56.70;;;;;;5091890;28;20048;-65
2022/08/14 07:35:44;;;;;;;4.50;4.20;;;24.40;56.70;;;;;;5091873;28;20051;-66
2022/08/14 07:38:17;;;;;;;4.70;4.30;;;24.30;56.70;;;;;;5109056;28;20036;-65
2022/08/14 07:40:43;;;;;;;5.20;4.68;;;24.40;56.90;;;;;;5093189;28;20106;-66
2022/08/14 07:43:08;;;;;;;4.53;4.22;;;24.40;56.90;;;;;;5091748;28;20644;-65
2022/08/14 07:45:34;;;;;;;4.22;3.92;;;24.40;56.90;;;;;;5092889;28;20124;-65
2022/08/14 07:48:00;;;;;;;5.18;4.78;;;24.40;56.80;;;;;;5092889;28;20040;-65
2022/08/14 07:50:26;;;;;;;5.22;4.72;;;24.40;56.90;;;;;;5091577;28;20187;-66
2022/08/14 07:52:51;;;;;;;4.82;4.47;;;24.40;56.80;;;;;;5091424;28;20052;-65
2022/08/14 07:55:18;;;;;;;5.32;4.93;;;24.40;56.90;;;;;;5091418;28;20385;-66
2022/08/14 07:57:45;;;;;;;4.38;4.03;;;24.40;57.00;;;;;;5091483;28;20051;-66
2022/08/14 08:00:17;;;;;;;4.93;4.53;;;24.40;57.20;;;;;;5092910;28;20078;-66
2022/08/14 08:02:45;;;;;;;5.47;5.05;;;24.40;57.20;;;;;;5108555;28;20044;-65
2022/08/14 08:05:13;;;;;;;5.40;4.78;;;24.40;57.30;;;;;;5091678;28;20140;-65
2022/08/14 08:07:40;;;;;;;5.00;4.60;;;24.40;57.40;;;;;;5091232;28;20075;-66
2022/08/14 08:10:41;;;;;;;5.00;4.68;;;24.40;57.50;;;;;;5091550;28;20047;-65
2022/08/14 08:12:58;;;;;;;4.82;4.43;;;24.40;57.50;;;;;;5092347;28;20052;-66
2022/08/14 08:15:25;;;;;;;4.57;4.18;;;24.40;57.50;;;;;;5091262;28;20127;-66
2022/08/14 08:17:52;;;;;;;5.20;4.70;;;24.50;57.60;;;;;;5091414;28;20048;-65
2022/08/14 08:20:21;;;;;;;5.00;4.68;;;24.50;57.60;;;;;;5091117;28;20040;-65
2022/08/14 08:22:49;;;;;;;4.93;4.53;;;24.50;57.50;;;;;;5074602;28;20044;-67
2022/08/14 08:25:16;;;;;;;4.82;4.43;;;24.40;57.50;;;;;;5091147;28;20142;-65
2022/08/14 08:27:41;;;;;;;5.00;4.50;;;24.50;57.50;;;;;;5090914;28;20043;-65
2022/08/14 08:30:09;;;;;;;5.18;4.68;;;24.50;57.50;;;;;;5107888;28;20040;-66
2022/08/14 08:32:40;;;;;;;4.68;4.38;;;24.50;57.50;;;;;;5090797;28;20048;-65
2022/08/14 08:35:10;;;;;;;4.50;4.13;;;24.50;57.50;;;;;;5090919;28;20051;-66
2022/08/14 08:37:36;;;;;;;5.00;4.53;;;24.50;57.50;;;;;;5091131;28;20403;-66
2022/08/14 08:40:01;;;;;;;4.57;4.28;;;24.50;57.50;;;;;;5090877;28;20051;-65
2022/08/14 08:42:27;;;;;;;4.95;4.28;;;24.50;57.60;;;;;;5091045;28;20040;-65
2022/08/14 08:44:54;;;;;;;4.68;4.28;;;24.50;57.60;;;;;;5091016;28;20043;-66
2022/08/14 08:47:20;;;;;;;4.85;4.45;;;24.50;57.80;;;;;;5091013;28;20130;-66
2022/08/14 08:49:45;;;;;;;5.00;4.60;;;24.50;57.80;;;;;;5107800;28;20576;-66
2022/08/14 08:52:11;;;;;;;5.22;4.82;;;24.50;57.80;;;;;;5091592;28;20060;-65
2022/08/14 08:54:38;;;;;;;4.80;4.40;;;24.50;57.70;;;;;;5091963;28;20075;-66
2022/08/14 08:57:11;;;;;;;4.90;4.50;;;24.50;57.70;;;;;;5090770;28;20113;-66
2022/08/14 08:59:36;;;;;;;4.53;4.15;;;24.50;57.70;;;;;;5090629;28;20055;-66
2022/08/14 09:02:07;;;;;;;4.95;4.55;;;24.50;57.70;;;;;;5092124;28;20044;-66
2022/08/14 09:04:38;;;;;;;4.25;3.95;;;24.50;57.70;;;;;;5090834;28;20044;-66
2022/08/14 09:07:04;;;;;;;5.13;4.63;;;24.50;57.60;;;;;;5090542;28;20048;-66
2022/08/14 09:09:31;;;;;;;4.57;4.28;;;24.60;57.60;;;;;;5091889;28;20119;-66
2022/08/14 09:11:59;;;;;;;5.32;4.93;;;24.50;57.40;;;;;;5107614;28;20054;-66
2022/08/14 09:14:28;;;;;;;4.20;3.90;;;24.60;57.40;;;;;;5090801;28;20048;-66
2022/08/14 09:16:54;;;;;;;4.57;4.28;;;24.60;57.30;;;;;;5091859;28;20036;-66
2022/08/14 09:19:20;;;;;;;4.38;4.07;;;24.60;57.10;;;;;;5090395;28;20086;-65
2022/08/14 09:21:47;;;;;;;4.47;4.07;;;24.70;57.10;;;;;;5090762;28;20044;-66
2022/08/14 09:24:13;;;;;;;4.72;4.32;;;24.70;57.10;;;;;;5091643;28;20472;-65
2022/08/14 09:26:41;;;;;;;4.18;3.88;;;24.70;57.00;;;;;;5091700;28;20036;-66
2022/08/14 09:29:08;;;;;;;4.63;4.32;;;24.70;56.90;;;;;;5090632;28;20517;-66
2022/08/14 09:31:36;;;;;;;5.22;4.88;;;24.70;56.70;;;;;;5090334;28;20105;-66
2022/08/14 09:36:54;;;;;;;4.28;3.97;;;24.80;56.70;;;;;;5130413;27;20379;-65
2022/08/14 09:39:39;;;;;;;5.50;5.05;;;24.80;56.40;;;;;;5146383;27;20112;-65
2022/08/14 09:45:18;;;;;;;4.73;3.83;;;24.90;56.30;;;;;;5152903;27;1163086;-66
2022/08/14 09:53:06;;;;;;;5.05;4.30;;;24.90;56.10;;;;;;5130316;27;20350;-66
2022/08/14 09:55:35;;;;;;;4.90;4.60;;;25.00;56.00;;;;;;5128867;28;20035;-66
2022/08/14 10:00:53;;;;;;;4.63;4.30;;;25.00;56.00;;;;;;5109832;27;20733;-66
2022/08/14 10:03:35;;;;;;;4.05;3.75;;;25.00;55.90;;;;;;5074818;28;20062;-66
2022/08/14 10:08:49;;;;;;;4.75;3.97;;;25.10;55.80;;;;;;5109700;27;20862;-66
2022/08/14 10:11:26;;;;;;;4.15;3.75;;;25.10;55.80;;;;;;5091447;28;20087;-66
2022/08/14 10:13:58;;;;;;;5.25;3.78;;;25.10;55.80;;;;;;5091388;28;20050;-68
2022/08/14 10:16:29;;;;;;;4.32;4.03;;;25.10;55.80;;;;;;5091389;28;20058;-67
2022/08/14 10:21:45;;;;;;;4.90;4.50;;;25.10;55.80;;;;;;5089455;27;20129;-66
2022/08/14 10:24:21;;;;;;;4.43;4.10;;;25.10;55.80;;;;;;5089524;28;20040;-65
2022/08/14 10:27:02;;;;;;;4.55;4.15;;;25.10;55.70;;;;;;5105301;28;20377;-66
2022/08/14 10:29:33;;;;;;;4.28;3.97;;;25.10;55.80;;;;;;5088280;28;20373;-66
2022/08/14 10:31:59;;;;;;;4.38;4.07;;;25.20;55.80;;;;;;5087884;28;20040;-65
2022/08/14 10:34:31;;;;;;;4.20;3.80;;;25.20;56.60;;;;;;5088212;28;20042;-65
2022/08/14 10:37:15;;;;;;;4.70;4.38;;;25.20;55.80;;;;;;5089186;28;20040;-66
2022/08/14 10:39:43;;;;;;;4.60;4.30;;;25.20;55.80;;;;;;5087828;28;20127;-66
2022/08/14 10:42:12;;;;;;;4.65;4.30;;;25.20;55.90;;;;;;5087621;28;20036;-66
2022/08/14 10:44:45;;;;;;;4.40;4.10;;;25.20;55.90;;;;;;5087736;28;20046;-66
2022/08/14 10:47:12;;;;;;;4.50;4.20;;;25.20;55.90;;;;;;5088139;28;20036;-66
2022/08/14 10:49:47;;;;;;;4.30;3.90;;;25.20;56.00;;;;;;5087720;28;20044;-66
2022/08/14 10:52:23;;;;;;;4.55;4.15;;;25.20;55.90;;;;;;5087637;28;20045;-66
2022/08/14 10:54:50;;;;;;;4.63;4.22;;;25.20;55.90;;;;;;5087522;28;20044;-66
2022/08/14 10:59:58;;;;;;;4.40;4.00;;;25.10;55.90;;;;;;5130335;27;20406;-66
2022/08/14 11:13:24;;;;;;;4.43;4.13;;;25.20;56.10;;;;;;5130364;27;20177;-66
2022/08/14 11:15:50;;;;;;;4.13;3.83;;;25.20;56.20;;;;;;5128893;27;20650;-66
2022/08/14 11:18:17;;;;;;;4.40;4.05;;;25.20;56.20;;;;;;5129187;28;20431;-66
2022/08/14 11:20:53;;;;;;;4.80;4.40;;;25.20;56.10;;;;;;5129197;28;20040;-66
2022/08/14 11:23:23;;;;;;;4.70;4.30;;;25.20;56.20;;;;;;5128882;28;20039;-66
2022/08/14 11:25:50;;;;;;;4.00;3.80;;;25.20;56.20;;;;;;5129147;28;20413;-65
2022/08/14 11:28:21;;;;;;;4.00;3.75;;;25.10;56.10;;;;;;5128968;28;20077;-66
2022/08/14 11:30:49;;;;;;;4.53;3.83;;;25.20;56.30;;;;;;5128986;28;20107;-66
2022/08/14 11:33:15;;;;;;;4.05;3.75;;;25.20;56.30;;;;;;5128636;28;20043;-66
2022/08/14 11:35:42;;;;;;;4.32;3.88;;;25.20;56.30;;;;;;5130050;28;20088;-66
2022/08/14 11:38:11;;;;;;;4.05;3.75;;;25.20;56.30;;;;;;5129934;27;20043;-66
2022/08/14 11:40:38;;;;;;;4.17;3.87;;;25.20;56.30;;;;;;5128842;28;20035;-66
2022/08/14 11:43:07;;;;;;;4.45;4.05;;;25.20;56.30;;;;;;5128547;27;20058;-66
2022/08/14 11:45:36;;;;;;;4.35;4.05;;;25.20;56.40;;;;;;5128724;28;20047;-66
2022/08/14 11:50:53;;;;;;;4.70;4.38;;;25.20;56.30;;;;;;5130578;27;20358;-66
2022/08/14 11:53:21;;;;;;;4.75;4.43;;;25.20;56.30;;;;;;5128899;28;20088;-66
2022/08/14 11:55:54;;;;;;;4.22;3.92;;;25.20;56.30;;;;;;5130126;27;20413;-66
2022/08/14 11:58:25;;;;;;;3.33;3.13;;;25.20;56.30;;;;;;5129178;28;20137;-66
2022/08/14 12:00:53;;;;;;;4.35;4.05;;;25.20;56.30;;;;;;5129089;28;20099;-66
2022/08/14 12:03:20;;;;;;;4.60;4.28;;;25.20;56.40;;;;;;5128796;28;20047;-66
2022/08/14 12:05:46;;;;;;;4.32;3.92;;;25.20;56.30;;;;;;5130102;27;20110;-66
2022/08/14 12:08:11;;;;;;;4.53;4.22;;;25.20;56.40;;;;;;5129856;27;20123;-66
2022/08/14 12:10:40;;;;;;;3.90;3.67;;;25.20;56.30;;;;;;5128572;28;20347;-66
2022/08/14 12:16:00;;;;;;;3.97;3.67;;;25.20;56.30;;;;;;5130193;27;20403;-66
2022/08/14 12:18:35;;;;;;;3.97;3.67;;;25.20;56.30;;;;;;5130280;27;20066;-66
2022/08/14 12:21:21;;;;;;;4.68;4.30;;;25.20;56.30;;;;;;5129001;28;20046;-65
2022/08/14 12:24:00;;;;;;;4.03;3.72;;;25.20;56.30;;;;;;5128873;28;20212;-66
2022/08/14 12:26:26;;;;;;;4.03;3.73;;;25.20;56.30;;;;;;5130208;27;20395;-66
2022/08/14 12:31:45;;;;;;;4.07;3.78;;;25.30;56.40;;;;;;5130292;27;20755;-65
2022/08/14 12:34:13;;;;;;;4.15;3.80;;;25.20;56.30;;;;;;5129176;28;20053;-66
2022/08/14 12:36:39;;;;;;;4.18;3.88;;;25.30;56.40;;;;;;5129152;28;20065;-65
2022/08/14 12:39:22;;;;;;;4.47;4.18;;;25.20;56.30;;;;;;5130305;27;20043;-66
2022/08/14 12:41:53;;;;;;;4.00;3.75;;;25.30;56.30;;;;;;5111822;28;20104;-66
2022/08/14 12:44:29;;;;;;;3.92;3.63;;;25.30;56.40;;;;;;5129127;28;20428;-66
2022/08/14 12:47:15;;;;;;;4.10;3.80;;;25.30;56.30;;;;;;5129054;28;20452;-65
2022/08/14 12:49:57;;;;;;;4.35;4.05;;;25.30;56.30;;;;;;5130057;27;20073;-66
2022/08/14 12:52:34;;;;;;;4.97;4.57;;;25.30;56.30;;;;;;5129866;27;20081;-66
2022/08/14 12:55:03;;;;;;;4.55;4.25;;;25.30;56.30;;;;;;5112180;28;20076;-66
2022/08/14 12:57:38;;;;;;;4.57;4.20;;;25.30;56.30;;;;;;5129954;27;20117;-66
2022/08/14 13:00:21;;;;;;;4.63;4.32;;;25.30;56.30;;;;;;5128555;28;20044;-66
2022/08/14 13:02:50;;;;;;;4.18;3.80;;;25.30;56.30;;;;;;5128677;28;20050;-66
2022/08/14 13:05:21;;;;;;;3.80;3.50;;;25.30;56.30;;;;;;5128713;28;20444;-66
2022/08/14 13:07:50;;;;;;;4.32;4.03;;;25.30;56.30;;;;;;5128350;28;20047;-66
2022/08/14 13:10:19;;;;;;;4.10;3.80;;;25.30;56.30;;;;;;5129660;27;20111;-66
2022/08/14 13:12:45;;;;;;;4.33;4.03;;;25.30;56.20;;;;;;5128338;28;20066;-66
2022/08/14 13:15:13;;;;;;;3.90;3.58;;;25.30;56.20;;;;;;5129542;27;20046;-66
2022/08/14 13:20:24;;;;;;;4.20;3.90;;;25.30;56.20;;;;;;5130856;27;20346;-66
2022/08/14 13:22:51;;;;;;;4.38;3.95;;;25.40;56.30;;;;;;5130338;27;20092;-66
2022/08/14 13:25:23;;;;;;;4.85;4.45;;;25.40;56.30;;;;;;5128990;27;20039;-66
2022/08/14 13:27:51;;;;;;;4.55;4.25;;;25.40;56.30;;;;;;5129152;28;20039;-66
2022/08/14 13:30:19;;;;;;;5.10;4.70;;;25.40;56.30;;;;;;5111747;28;20051;-65
2022/08/14 13:32:45;;;;;;;4.53;4.15;;;25.40;56.30;;;;;;5128998;27;20174;-66
2022/08/14 13:35:14;;;;;;;4.60;4.20;;;25.40;56.30;;;;;;5130104;27;20039;-66
2022/08/14 13:37:41;;;;;;;4.13;3.80;;;25.40;56.30;;;;;;5112064;28;20039;-66
2022/08/14 13:40:07;;;;;;;3.90;3.63;;;25.40;56.30;;;;;;5128577;28;20119;-66
2022/08/14 13:42:35;;;;;;;4.45;4.15;;;25.40;56.30;;;;;;5128853;28;20035;-66
2022/08/14 13:45:03;;;;;;;4.18;3.88;;;25.50;56.30;;;;;;5128492;28;20592;-66
2022/08/14 13:47:31;;;;;;;5.00;4.47;;;25.40;56.30;;;;;;5130199;27;20395;-66
2022/08/14 13:50:01;;;;;;;4.45;4.13;;;25.50;56.30;;;;;;5129806;27;20122;-65
2022/08/14 13:52:33;;;;;;;4.75;4.35;;;25.50;56.30;;;;;;5129781;27;20039;-66
2022/08/14 13:55:03;;;;;;;4.60;4.30;;;25.40;56.20;;;;;;5129629;27;20046;-65
2022/08/14 13:57:32;;;;;;;4.63;4.22;;;25.50;56.30;;;;;;5128177;28;20124;-66